createdAt,value
2023-02-19T00:01:24.124Z,6.87
2023-02-19T00:03:53.370Z,6.73
2023-02-19T00:06:21.398Z,6.03
2023-02-19T00:08:48.866Z,6.37
2023-02-19T00:11:17.384Z,6.50
2023-02-19T00:13:46.540Z,6.23
2023-02-19T00:16:15.256Z,5.77
2023-02-19T00:18:43.042Z,5.97
2023-02-19T00:21:10.991Z,6.53
2023-02-19T00:23:38.466Z,10.20
2023-02-19T00:26:18.553Z,10.20
2023-02-19T00:28:46.984Z,7.73
2023-02-19T00:31:20.047Z,6.17
2023-02-19T00:33:47.898Z,6.17
2023-02-19T00:36:15.442Z,5.50
2023-02-19T00:38:43.440Z,6.53
2023-02-19T00:41:20.690Z,6.03
2023-02-19T00:43:54.056Z,5.30
2023-02-19T00:46:22.811Z,5.90
2023-02-19T00:48:50.330Z,5.33
2023-02-19T00:51:17.546Z,5.33
2023-02-19T00:53:44.761Z,5.70
2023-02-19T00:56:12.353Z,5.07
2023-02-19T00:58:39.754Z,5.43
2023-02-19T01:01:08.384Z,5.33
2023-02-19T01:03:36.006Z,5.00
2023-02-19T01:06:04.348Z,5.47
2023-02-19T01:08:32.072Z,5.43
2023-02-19T01:10:59.464Z,4.77
2023-02-19T01:13:28.341Z,4.77
2023-02-19T01:15:56.099Z,5.80
2023-02-19T01:18:23.252Z,4.80
2023-02-19T01:20:50.665Z,4.87
2023-02-19T01:23:17.942Z,5.23
2023-02-19T01:25:45.114Z,5.10
2023-02-19T01:28:12.481Z,5.30
2023-02-19T01:30:40.084Z,5.13
2023-02-19T01:33:08.126Z,4.97
2023-02-19T01:35:35.855Z,5.07
2023-02-19T01:38:03.515Z,5.17
2023-02-19T01:40:30.806Z,5.10
2023-02-19T01:42:58.107Z,5.60
2023-02-19T01:45:31.543Z,5.20
2023-02-19T01:47:59.041Z,5.17
2023-02-19T01:50:28.989Z,5.10
2023-02-19T01:52:56.404Z,5.47
2023-02-19T01:55:24.126Z,5.53
2023-02-19T01:57:54.139Z,5.17
2023-02-19T02:00:21.549Z,6.00
2023-02-19T02:02:50.401Z,6.17
2023-02-19T02:05:41.351Z,6.30
2023-02-19T02:08:27.728Z,5.97
2023-02-19T02:10:55.948Z,6.80
2023-02-19T02:13:23.439Z,6.40
2023-02-19T02:15:53.639Z,6.40
2023-02-19T02:18:36.689Z,6.60
2023-02-19T02:21:07.080Z,6.10
2023-02-19T02:23:57.459Z,7.43
2023-02-19T02:26:30.495Z,6.77
2023-02-19T02:29:16.196Z,6.20
2023-02-19T02:31:46.439Z,5.83
2023-02-19T02:34:13.969Z,6.07
2023-02-19T02:36:42.948Z,5.57
2023-02-19T02:39:12.119Z,5.70
2023-02-19T02:41:46.979Z,5.43
2023-02-19T02:44:14.402Z,6.07
2023-02-19T02:46:43.047Z,5.07
2023-02-19T02:49:13.918Z,4.93
2023-02-19T02:51:48.350Z,4.80
2023-02-19T02:54:35.955Z,5.03
2023-02-19T02:57:03.308Z,5.13
2023-02-19T02:59:35.072Z,5.77
2023-02-19T03:02:12.599Z,5.07
2023-02-19T03:05:04.656Z,4.90
2023-02-19T03:07:34.711Z,4.90
2023-02-19T03:10:02.581Z,5.57
2023-02-19T03:12:50.189Z,6.20
2023-02-19T03:15:36.487Z,5.90
2023-02-19T03:18:24.469Z,5.63
2023-02-19T03:20:53.680Z,4.83
2023-02-19T03:23:42.501Z,5.63
2023-02-19T03:26:11.549Z,6.10
2023-02-19T03:28:58.184Z,6.70
2023-02-19T03:31:25.961Z,6.17
2023-02-19T03:33:56.363Z,6.40
2023-02-19T03:36:27.345Z,7.13
2023-02-19T03:39:05.168Z,6.17
2023-02-19T03:41:49.976Z,6.77
2023-02-19T03:44:24.106Z,6.70
2023-02-19T03:47:03.620Z,7.30
2023-02-19T03:49:36.282Z,6.77
2023-02-19T03:52:03.820Z,6.77
2023-02-19T03:54:53.511Z,6.83
2023-02-19T03:57:33.011Z,6.90
2023-02-19T04:00:03.140Z,7.43
2023-02-19T04:02:33.699Z,7.73
2023-02-19T04:05:05.677Z,7.13
2023-02-19T04:07:34.525Z,7.93
2023-02-19T04:10:02.014Z,7.63
2023-02-19T04:12:30.133Z,7.00
2023-02-19T04:15:03.172Z,7.67
2023-02-19T04:17:36.516Z,7.23
2023-02-19T04:20:07.387Z,7.80
2023-02-19T04:22:35.640Z,8.10
2023-02-19T04:25:02.907Z,7.40
2023-02-19T04:27:30.086Z,8.33
2023-02-19T04:29:57.308Z,7.43
2023-02-19T04:32:24.562Z,8.13
2023-02-19T04:34:54.212Z,8.97
2023-02-19T04:37:21.651Z,8.90
2023-02-19T04:39:48.874Z,9.13
2023-02-19T04:42:16.034Z,9.20
2023-02-19T04:44:43.722Z,7.90
2023-02-19T04:47:11.109Z,8.43
2023-02-19T04:49:38.272Z,8.43
2023-02-19T04:52:05.487Z,8.43
2023-02-19T04:54:32.796Z,8.10
2023-02-19T04:56:59.962Z,8.80
2023-02-19T04:59:27.179Z,9.47
2023-02-19T05:01:54.589Z,8.80
2023-02-19T05:04:21.885Z,9.40
2023-02-19T05:06:49.107Z,9.27
2023-02-19T05:09:16.457Z,10.00
2023-02-19T05:11:43.843Z,9.30
2023-02-19T05:14:11.061Z,9.70
2023-02-19T05:16:38.238Z,9.90
2023-02-19T05:19:05.820Z,9.40
2023-02-19T05:21:33.167Z,9.90
2023-02-19T05:24:00.517Z,8.83
2023-02-19T05:26:27.823Z,9.23
2023-02-19T05:28:55.318Z,8.93
2023-02-19T05:31:22.878Z,9.30
2023-02-19T05:33:52.815Z,8.63
2023-02-19T05:36:21.720Z,9.40
2023-02-19T05:38:49.300Z,10.10
2023-02-19T05:41:18.060Z,9.37
2023-02-19T05:43:46.092Z,9.57
2023-02-19T05:46:14.658Z,9.43
2023-02-19T05:48:42.243Z,8.63
2023-02-19T05:51:11.331Z,9.23
2023-02-19T05:53:39.041Z,8.67
2023-02-19T05:56:17.330Z,8.17
2023-02-19T05:58:44.835Z,8.40
2023-02-19T06:01:18.878Z,8.30
2023-02-19T06:03:46.183Z,9.20
2023-02-19T06:06:16.780Z,8.93
2023-02-19T06:08:44.181Z,8.00
2023-02-19T06:11:11.948Z,9.03
2023-02-19T06:13:39.592Z,9.57
2023-02-19T06:16:08.080Z,8.87
2023-02-19T06:18:35.398Z,8.67
2023-02-19T06:21:03.365Z,8.90
2023-02-19T06:23:30.870Z,9.50
2023-02-19T06:26:08.293Z,9.07
2023-02-19T06:28:35.928Z,9.60
2023-02-19T06:31:03.191Z,9.20
2023-02-19T06:33:30.606Z,9.30
2023-02-19T06:36:04.719Z,9.40
2023-02-19T06:38:32.143Z,9.97
2023-02-19T06:41:03.311Z,10.10
2023-02-19T06:43:31.552Z,10.33
2023-02-19T06:46:00.048Z,10.10
2023-02-19T06:48:28.513Z,10.43
2023-02-19T06:50:55.948Z,10.03
2023-02-19T06:53:23.434Z,9.33
2023-02-19T06:55:57.857Z,9.10
2023-02-19T06:58:25.111Z,9.80
2023-02-19T07:00:52.751Z,9.73
2023-02-19T07:03:20.051Z,10.23
2023-02-19T07:05:47.436Z,9.50
2023-02-19T07:08:14.987Z,9.33
2023-02-19T07:10:42.255Z,10.23
2023-02-19T07:13:09.505Z,9.63
2023-02-19T07:15:36.802Z,9.57
2023-02-19T07:18:05.266Z,9.10
2023-02-19T07:20:32.498Z,9.30
2023-02-19T07:22:59.821Z,9.03
2023-02-19T07:25:27.053Z,9.53
2023-02-19T07:27:54.292Z,8.87
2023-02-19T07:30:21.540Z,9.13
2023-02-19T07:32:48.795Z,9.17
2023-02-19T07:35:16.086Z,8.60
2023-02-19T07:37:43.290Z,8.70
2023-02-19T07:40:10.596Z,7.73
2023-02-19T07:42:37.822Z,7.37
2023-02-19T07:45:05.162Z,7.57
2023-02-19T07:47:32.343Z,7.53
2023-02-19T07:49:59.797Z,7.60
2023-02-19T07:52:27.205Z,7.17
2023-02-19T07:54:54.445Z,7.20
2023-02-19T07:57:21.643Z,6.83
2023-02-19T07:59:48.861Z,7.30
2023-02-19T08:02:35.943Z,6.83
2023-02-19T08:05:03.728Z,7.20
2023-02-19T08:07:35.011Z,6.57
2023-02-19T08:10:21.194Z,6.70
2023-02-19T08:13:19.372Z,5.83
2023-02-19T08:15:46.697Z,6.13
2023-02-19T08:18:14.896Z,6.30
2023-02-19T08:20:42.189Z,6.90
2023-02-19T08:23:09.762Z,6.60
2023-02-19T08:25:37.223Z,6.77
2023-02-19T08:28:04.843Z,6.53
2023-02-19T08:30:32.612Z,6.70
2023-02-19T08:33:02.265Z,6.70
2023-02-19T08:35:29.703Z,6.40
2023-02-19T08:37:57.660Z,6.57
2023-02-19T08:40:25.670Z,5.67
2023-02-19T08:42:53.173Z,5.40
2023-02-19T08:45:20.467Z,5.87
2023-02-19T08:47:47.671Z,5.10
2023-02-19T08:50:14.974Z,5.97
2023-02-19T08:52:42.252Z,5.77
2023-02-19T08:55:09.535Z,4.97
2023-02-19T08:57:40.216Z,5.43
2023-02-19T09:00:08.866Z,5.87
2023-02-19T09:02:36.558Z,5.30
2023-02-19T09:05:03.863Z,5.13
2023-02-19T09:07:31.115Z,5.53
2023-02-19T09:09:58.704Z,5.43
2023-02-19T09:12:26.058Z,6.07
2023-02-19T09:14:53.301Z,4.67
2023-02-19T09:17:20.492Z,5.10
2023-02-19T09:19:50.004Z,5.33
2023-02-19T09:22:17.973Z,5.20
2023-02-19T09:24:45.410Z,5.07
2023-02-19T09:27:16.695Z,5.57
2023-02-19T09:29:43.936Z,5.30
2023-02-19T09:32:11.813Z,5.63
2023-02-19T09:34:39.178Z,4.97
2023-02-19T09:37:07.135Z,4.47
2023-02-19T09:39:34.787Z,4.17
2023-02-19T09:42:01.936Z,3.77
2023-02-19T09:44:34.128Z,3.77
2023-02-19T09:47:02.436Z,3.70
2023-02-19T09:49:41.320Z,3.47
2023-02-19T09:52:20.612Z,3.43
2023-02-19T09:54:48.166Z,3.57
2023-02-19T09:57:17.905Z,3.57
2023-02-19T09:59:47.005Z,3.63
2023-02-19T10:02:16.242Z,3.23
2023-02-19T10:04:44.592Z,2.70
2023-02-19T10:07:22.678Z,2.83
2023-02-19T10:09:53.965Z,3.03
2023-02-19T10:12:25.609Z,3.07
2023-02-19T10:14:54.002Z,2.83
2023-02-19T10:17:25.696Z,4.50
2023-02-19T10:19:53.656Z,3.63
2023-02-19T10:22:21.598Z,2.90
2023-02-19T10:24:53.703Z,3.20
2023-02-19T10:27:20.966Z,4.50
2023-02-19T10:29:49.302Z,2.60
2023-02-19T10:32:23.913Z,2.83
2023-02-19T10:35:13.811Z,2.70
2023-02-19T10:37:45.515Z,3.10
2023-02-19T10:40:18.976Z,2.53
2023-02-19T10:42:48.033Z,2.67
2023-02-19T10:45:20.567Z,2.53
2023-02-19T10:47:48.667Z,2.50
2023-02-19T10:50:22.606Z,3.10
2023-02-19T10:52:53.830Z,1.80
2023-02-19T10:55:24.013Z,2.13
2023-02-19T10:57:51.270Z,2.10
2023-02-19T11:00:27.471Z,2.13
2023-02-19T11:03:14.787Z,2.00
2023-02-19T11:05:51.199Z,2.27
2023-02-19T11:08:24.813Z,2.23
2023-02-19T11:10:52.205Z,2.50
2023-02-19T11:13:25.753Z,2.10
2023-02-19T11:15:54.775Z,3.30
2023-02-19T11:18:27.546Z,3.53
2023-02-19T11:20:56.903Z,3.63
2023-02-19T11:26:02.733Z,2.77
2023-02-19T11:28:36.901Z,2.50
2023-02-19T11:31:28.352Z,2.43
2023-02-19T11:33:57.384Z,2.10
2023-02-19T11:36:30.048Z,2.30
2023-02-19T11:38:58.461Z,1.90
2023-02-19T11:41:46.349Z,2.20
2023-02-19T11:44:32.424Z,2.20
2023-02-19T11:47:18.614Z,1.60
2023-02-19T11:49:58.376Z,2.23
2023-02-19T11:52:35.068Z,1.97
2023-02-19T11:55:08.391Z,2.13
2023-02-19T11:57:35.639Z,2.40
2023-02-19T12:00:02.860Z,2.03
2023-02-19T12:02:32.776Z,1.97
2023-02-19T12:04:59.976Z,1.87
2023-02-19T12:07:45.464Z,2.00
2023-02-19T12:10:22.602Z,2.33
2023-02-19T12:13:22.351Z,2.17
2023-02-19T12:18:44.848Z,1.83
2023-02-19T12:21:27.636Z,1.50
2023-02-19T12:24:13.610Z,1.70
2023-02-19T12:26:43.887Z,1.87
2023-02-19T12:29:13.974Z,1.80
2023-02-19T12:31:59.435Z,2.03
2023-02-19T12:34:46.876Z,2.17
2023-02-19T12:37:20.270Z,1.53
2023-02-19T12:39:50.448Z,1.30
2023-02-19T12:42:29.965Z,1.50
2023-02-19T12:45:00.441Z,1.27
2023-02-19T12:47:33.152Z,1.47
2023-02-19T12:50:19.142Z,1.77
2023-02-19T12:52:49.579Z,1.90
2023-02-19T12:55:20.354Z,1.30
2023-02-19T12:57:47.823Z,1.93
2023-02-19T13:00:32.254Z,1.53
2023-02-19T13:03:21.157Z,1.73
2023-02-19T13:05:51.279Z,1.87
2023-02-19T13:09:03.433Z,1.90
2023-02-19T13:11:36.707Z,2.20
2023-02-19T13:14:12.677Z,2.30
2023-02-19T13:16:43.060Z,1.70
2023-02-19T13:19:11.931Z,1.90
2023-02-19T13:21:57.908Z,1.83
2023-02-19T13:24:33.204Z,1.67
2023-02-19T13:27:17.484Z,1.40
2023-02-19T13:29:47.753Z,1.73
2023-02-19T13:32:15.036Z,1.17
2023-02-19T13:34:45.317Z,1.60
2023-02-19T13:37:12.714Z,1.37
2023-02-19T13:39:48.696Z,1.27
2023-02-19T13:42:24.980Z,1.40
2023-02-19T13:44:57.744Z,1.23
2023-02-19T13:47:44.629Z,1.40
2023-02-19T13:50:18.125Z,1.40
2023-02-19T13:52:45.814Z,1.50
2023-02-19T13:55:31.873Z,1.60
2023-02-19T13:58:18.388Z,2.00
2023-02-19T14:00:53.880Z,1.60
2023-02-19T14:03:40.714Z,1.27
2023-02-19T14:06:09.738Z,0.90
2023-02-19T14:08:51.067Z,1.00
2023-02-19T14:11:20.870Z,1.17
2023-02-19T14:13:51.172Z,1.70
2023-02-19T14:16:37.924Z,1.60
2023-02-19T14:19:14.010Z,1.33
2023-02-19T14:21:43.866Z,1.23
2023-02-19T14:24:15.251Z,1.20
2023-02-19T14:26:42.698Z,1.10
2023-02-19T14:29:10.668Z,1.00
2023-02-19T14:31:39.411Z,1.23
2023-02-19T14:34:08.402Z,1.20
2023-02-19T14:36:44.282Z,1.20
2023-02-19T14:39:17.679Z,1.20
2023-02-19T14:41:46.700Z,1.10
2023-02-19T14:44:16.578Z,1.20
2023-02-19T14:46:52.740Z,1.37
2023-02-19T14:49:43.245Z,1.37
2023-02-19T14:52:25.930Z,1.17
2023-02-19T14:55:00.766Z,1.37
2023-02-19T14:57:29.614Z,1.37
2023-02-19T15:00:01.564Z,1.37
2023-02-19T15:02:30.501Z,1.40
2023-02-19T15:04:57.856Z,1.60
2023-02-19T15:07:34.166Z,1.73
2023-02-19T15:10:05.523Z,1.30
2023-02-19T15:12:39.780Z,1.63
2023-02-19T15:15:07.742Z,1.50
2023-02-19T15:17:37.147Z,1.30
2023-02-19T15:20:09.720Z,1.30
2023-02-19T15:22:36.933Z,2.90
2023-02-19T15:25:05.877Z,2.40
2023-02-19T15:27:34.356Z,1.27
2023-02-19T15:30:01.631Z,1.23
2023-02-19T15:32:29.094Z,1.40
2023-02-19T15:35:03.038Z,1.80
2023-02-19T15:37:31.979Z,1.60
2023-02-19T15:40:04.118Z,1.57
2023-02-19T15:42:31.936Z,1.83
2023-02-19T15:45:02.110Z,1.70
2023-02-19T15:47:49.550Z,1.90
2023-02-19T15:50:18.777Z,1.70
2023-02-19T15:52:49.009Z,1.73
2023-02-19T15:55:16.282Z,2.00
2023-02-19T15:57:45.146Z,2.30
2023-02-19T16:00:29.360Z,1.80
2023-02-19T16:02:56.917Z,1.57
2023-02-19T16:05:25.843Z,2.60
2023-02-19T16:08:09.900Z,2.63
2023-02-19T16:10:37.274Z,3.63
2023-02-19T16:13:05.486Z,2.10
2023-02-19T16:15:34.314Z,2.10
2023-02-19T16:18:01.720Z,1.80
2023-02-19T16:20:33.465Z,1.67
2023-02-19T16:23:05.426Z,2.93
2023-02-19T16:25:42.119Z,2.10
2023-02-19T16:28:24.084Z,2.87
2023-02-19T16:31:08.488Z,3.43
2023-02-19T16:33:37.274Z,7.40
2023-02-19T16:36:19.912Z,7.30
2023-02-19T16:39:07.354Z,11.30
2023-02-19T16:41:35.308Z,11.70
2023-02-19T16:44:06.546Z,8.43
2023-02-19T16:46:41.200Z,5.63
2023-02-19T16:49:10.234Z,4.43
2023-02-19T16:51:37.602Z,27.10
2023-02-19T16:54:07.842Z,67.63
2023-02-19T16:56:35.063Z,52.53
2023-02-19T16:59:02.844Z,33.30
2023-02-19T17:01:30.313Z,10.50
2023-02-19T17:04:04.020Z,7.50
2023-02-19T17:06:33.137Z,5.80
2023-02-19T17:09:00.455Z,3.97
2023-02-19T17:11:28.145Z,4.97
2023-02-19T17:13:55.683Z,3.97
2023-02-19T17:16:27.592Z,3.50
2023-02-19T17:18:55.724Z,2.87
2023-02-19T17:21:28.144Z,2.70
2023-02-19T17:23:57.268Z,2.87
2023-02-19T17:26:29.027Z,3.67
2023-02-19T17:28:56.993Z,3.27
2023-02-19T17:31:24.273Z,3.13
2023-02-19T17:33:52.052Z,3.30
2023-02-19T17:36:30.778Z,2.90
2023-02-19T17:39:02.534Z,2.43
2023-02-19T17:41:30.230Z,3.07
2023-02-19T17:43:57.455Z,3.80
2023-02-19T17:46:26.400Z,3.43
2023-02-19T17:48:54.095Z,3.67
2023-02-19T17:51:26.732Z,6.50
2023-02-19T17:53:54.030Z,5.83
2023-02-19T17:56:22.584Z,3.03
2023-02-19T17:58:49.896Z,4.20
2023-02-19T18:01:18.874Z,4.93
2023-02-19T18:03:46.325Z,6.03
2023-02-19T18:06:13.619Z,4.83
2023-02-19T18:08:42.451Z,3.60
2023-02-19T18:11:10.169Z,2.40
2023-02-19T18:13:38.129Z,3.70
2023-02-19T18:16:06.259Z,2.90
2023-02-19T18:18:33.913Z,3.23
2023-02-19T18:21:01.118Z,4.43
2023-02-19T18:23:28.370Z,3.43
2023-02-19T18:25:55.573Z,3.27
2023-02-19T18:28:22.816Z,3.63
2023-02-19T18:30:50.244Z,2.63
2023-02-19T18:33:17.880Z,2.60
2023-02-19T18:35:47.421Z,2.87
2023-02-19T18:38:14.635Z,2.50
2023-02-19T18:40:42.091Z,2.67
2023-02-19T18:43:09.424Z,3.10
2023-02-19T18:45:39.413Z,2.93
2023-02-19T18:48:07.032Z,2.40
2023-02-19T18:50:35.092Z,3.57
2023-02-19T18:53:02.380Z,4.00
2023-02-19T18:55:29.962Z,4.30
2023-02-19T18:57:57.145Z,4.17
2023-02-19T19:00:26.633Z,4.10
2023-02-19T19:02:58.081Z,4.33
2023-02-19T19:05:25.723Z,4.40
2023-02-19T19:07:54.221Z,6.23
2023-02-19T19:10:21.779Z,7.77
2023-02-19T19:12:49.642Z,13.07
2023-02-19T19:15:18.423Z,18.40
2023-02-19T19:17:46.034Z,14.47
2023-02-19T19:20:13.835Z,12.40
2023-02-19T19:22:41.286Z,9.67
2023-02-19T19:25:09.039Z,10.63
2023-02-19T19:27:36.877Z,10.20
2023-02-19T19:30:05.197Z,6.00
2023-02-19T19:32:32.565Z,6.60
2023-02-19T19:34:59.980Z,6.10
2023-02-19T19:37:29.175Z,5.90
2023-02-19T19:39:56.728Z,6.67
2023-02-19T19:42:24.491Z,5.53
2023-02-19T19:44:52.167Z,4.20
2023-02-19T19:47:19.620Z,3.53
2023-02-19T19:49:47.412Z,5.23
2023-02-19T19:52:14.917Z,5.40
2023-02-19T19:54:43.165Z,4.13
2023-02-19T19:57:10.904Z,3.60
2023-02-19T19:59:39.539Z,4.10
2023-02-19T20:02:07.718Z,4.10
2023-02-19T20:04:35.006Z,9.33
2023-02-19T20:07:02.280Z,7.90
2023-02-19T20:09:29.669Z,7.20
2023-02-19T20:11:57.282Z,7.13
2023-02-19T20:14:25.338Z,4.50
2023-02-19T20:16:53.105Z,7.10
2023-02-19T20:19:23.900Z,4.97
2023-02-19T20:21:52.693Z,4.83
2023-02-19T20:24:24.380Z,4.10
2023-02-19T20:26:52.499Z,4.40
2023-02-19T20:29:19.780Z,4.53
2023-02-19T20:31:50.777Z,3.80
2023-02-19T20:34:18.778Z,4.37
2023-02-19T20:36:47.270Z,4.40
2023-02-19T20:39:15.786Z,3.90
2023-02-19T20:41:52.884Z,3.10
2023-02-19T20:44:20.585Z,3.27
2023-02-19T20:46:49.088Z,3.80
2023-02-19T20:49:19.706Z,3.13
2023-02-19T20:51:48.307Z,3.47
2023-02-19T20:54:17.655Z,4.13
2023-02-19T20:56:50.652Z,4.00
2023-02-19T20:59:18.897Z,3.93
2023-02-19T21:01:46.464Z,4.60
2023-02-19T21:04:14.146Z,3.23
2023-02-19T21:06:41.364Z,3.80
2023-02-19T21:09:08.589Z,4.20
2023-02-19T21:11:35.892Z,4.63
2023-02-19T21:14:03.160Z,6.30
2023-02-19T21:16:31.435Z,3.37
2023-02-19T21:18:58.743Z,5.20
2023-02-19T21:21:27.047Z,5.30
2023-02-19T21:23:59.772Z,4.63
2023-02-19T21:26:33.617Z,4.47
2023-02-19T21:29:01.108Z,5.57
2023-02-19T21:31:36.499Z,3.73
2023-02-19T21:34:08.168Z,4.17
2023-02-19T21:36:38.332Z,4.77
2023-02-19T21:39:08.132Z,5.50
2023-02-19T21:41:35.600Z,4.47
2023-02-19T21:44:02.940Z,4.00
2023-02-19T21:46:30.203Z,5.07
2023-02-19T21:48:57.785Z,4.77
2023-02-19T21:51:35.303Z,4.67
2023-02-19T21:54:03.136Z,4.40
2023-02-19T21:56:31.633Z,3.70
2023-02-19T21:58:59.192Z,3.70
2023-02-19T22:01:39.973Z,3.93
2023-02-19T22:04:08.782Z,3.93
2023-02-19T22:06:36.066Z,3.00
2023-02-19T22:09:04.231Z,3.10
2023-02-19T22:11:31.493Z,3.87
2023-02-19T22:13:58.934Z,4.73
2023-02-19T22:16:26.161Z,4.40
2023-02-19T22:18:54.926Z,4.93
2023-02-19T22:21:22.830Z,4.00
2023-02-19T22:23:51.465Z,4.13
2023-02-19T22:26:26.217Z,4.10
2023-02-19T22:28:53.576Z,4.37
2023-02-19T22:31:22.294Z,3.53
2023-02-19T22:33:49.582Z,3.30
2023-02-19T22:36:16.756Z,3.60
2023-02-19T22:38:44.039Z,3.27
2023-02-19T22:41:11.424Z,4.00
2023-02-19T22:43:38.803Z,3.83
2023-02-19T22:46:09.409Z,3.50
2023-02-19T22:48:36.827Z,3.93
2023-02-19T22:51:04.292Z,3.73
2023-02-19T22:53:34.113Z,3.03
2023-02-19T22:56:04.810Z,3.23
2023-02-19T22:58:32.056Z,3.00
2023-02-19T23:00:59.360Z,3.20
2023-02-19T23:03:26.582Z,3.27
2023-02-19T23:05:53.799Z,2.90
2023-02-19T23:08:21.286Z,2.50
2023-02-19T23:10:48.514Z,2.97
2023-02-19T23:13:15.824Z,2.50
2023-02-19T23:15:43.011Z,3.17
2023-02-19T23:18:10.230Z,3.17
2023-02-19T23:20:37.487Z,3.40
2023-02-19T23:23:04.672Z,3.23
2023-02-19T23:25:31.883Z,3.23
2023-02-19T23:27:59.076Z,2.80
2023-02-19T23:30:26.561Z,2.23
2023-02-19T23:32:53.853Z,4.67
2023-02-19T23:35:21.137Z,3.97
2023-02-19T23:37:48.430Z,4.83
2023-02-19T23:40:15.823Z,3.63
2023-02-19T23:42:43.348Z,4.10
2023-02-19T23:45:10.536Z,7.60
2023-02-19T23:47:37.724Z,4.10
2023-02-19T23:50:04.932Z,3.37
2023-02-19T23:52:32.176Z,5.10
2023-02-19T23:54:59.392Z,5.07
2023-02-19T23:57:26.612Z,3.60
2023-02-19T23:59:53.820Z,3.47
